Laredo International Airport
KLRD : now visible

Airfield :











YOU CAN JOIN US ON...

 
LOGIN :

Register | Disclaimer

   EN    FR    IT 

 









Legend :    VFR   Marginal VFR   IFR   Intensive IFR   Very Intensive IFR
Visi :
Ceiling :
>= 8 km
>= 3000ft
5 to 8 km
1000 to 3000 ft
1500m to 5 km
500 to 1000 ft
800 to 1500m
200 to 500 ft
< 800m
< 200 ft
Symbols :   Thunderstorms  Fog  Heavy snow  Heavy precipitations  Wind > 20 kt






- Airport Elevation : 508 ft
- IATA code : LRD


KLRD - Laredo International

CURRENT METAR :
  • 280729Z AUTO 32018G25KT 10SM OVC010 06/04 A3005 RMK AO2 PK WND 32027/0717 CIG 007V013

EXPIRED METARs :
  • 280656Z AUTO 31021G26KT 9SM OVC008 06/04 A3006 RMK AO2 PK WND 32027/0619 CIG 007V011 SLP181 T00560044
  • 280556Z AUTO 32017G24KT 7SM OVC008 06/05 A3005 RMK AO2 CIG 006V010 SLP180 60001 T00610050 10072 20061 401280061 51012
  • 280456Z AUTO 31014KT 10SM OVC008 06/06 A3005 RMK AO2 RAE29 CIG 005V010 SLP177 P0001 T00610056

TAF KLRD
Valid from the 28 at 06:00 until the 29 at 06:00 UTC


280527Z 2806/2906 31014KT P6SM VCSH BKN008 OVC012
TEMPO 2806/2810 5SM BR OVC006
FM281200 31012G20KT P6SM BKN015
FM281600 33014G22KT P6SM SCT035
FM282100 34010KT P6SM SCT250
KZHU FIR / North America



MET'MAP, your aeronautical weather chart ! - Copyright ORBIFLY December 2007 - Disclaimer

ORBIFLY MET'MAP TEAM :

Programming & Development : Alexandra Zaïnal
Concept & original design : Baudouin d'Aumeries
Assistance for programming : Marc-Olivier Méhu
Technical & hardware support : Manuel Goepfert

Contact : metmap@orbifly.com




SOURCES & CREDITS :

   NOAA       Earth
Advisory